Time;durP1;ratioP1;P1;durP2;ratioP2;P2;SDS_P1;SDS_P2;PMS_P1;PMS_P2;Temp;Humidity;BMP_temperature;BMP_pressure;BME280_temperature;BME280_humidity;BME280_pressure;Samples;Min_cycle;Max_cycle;Signal;HPM_P1;HPM_P2
2022/05/30 00:00:02;;;;;;;5.13;2.65;;;9.80;99.90;;;;;;5089490;28;20423;-54
2022/05/30 00:02:27;;;;;;;6.72;2.40;;;9.80;99.90;;;;;;5088709;28;20028;-55
2022/05/30 00:04:53;;;;;;;4.82;2.33;;;9.80;99.90;;;;;;5088920;28;20860;-55
2022/05/30 00:07:18;;;;;;;10.77;2.63;;;9.90;99.90;;;;;;5089291;28;20102;-56
2022/05/30 00:09:48;;;;;;;14.40;2.95;;;9.90;99.90;;;;;;5087746;28;20945;-55
2022/05/30 00:12:13;;;;;;;9.32;3.30;;;9.90;99.90;;;;;;5088276;28;20031;-56
2022/05/30 00:14:39;;;;;;;3.28;2.28;;;10.00;99.90;;;;;;5087014;28;20028;-57
2022/05/30 00:17:05;;;;;;;5.80;2.92;;;10.00;99.90;;;;;;5090004;28;20024;-55
2022/05/30 00:19:30;;;;;;;4.95;2.35;;;10.00;99.90;;;;;;5084782;28;20024;-54
2022/05/30 00:21:56;;;;;;;10.07;2.97;;;9.90;99.90;;;;;;5090214;28;20024;-54
2022/05/30 00:24:22;;;;;;;5.45;2.55;;;10.00;99.90;;;;;;5086317;28;20032;-54
2022/05/30 00:26:48;;;;;;;3.95;2.40;;;10.00;99.90;;;;;;5089066;28;20035;-56
2022/05/30 00:29:13;;;;;;;4.68;2.67;;;9.90;99.90;;;;;;5087379;28;20044;-55
2022/05/30 00:31:39;;;;;;;4.65;2.47;;;10.00;99.90;;;;;;5089058;28;20198;-54
2022/05/30 00:34:04;;;;;;;4.07;2.35;;;10.00;99.90;;;;;;5084470;28;20043;-55
2022/05/30 00:36:30;;;;;;;7.35;2.42;;;10.00;99.90;;;;;;5085525;28;20049;-56
2022/05/30 00:38:55;;;;;;;6.93;2.35;;;9.90;99.90;;;;;;5086155;28;20028;-54
2022/05/30 00:41:22;;;;;;;3.50;2.50;;;9.80;99.90;;;;;;5089011;28;20054;-53
2022/05/30 00:43:48;;;;;;;5.95;2.45;;;9.70;99.90;;;;;;5089244;28;20044;-56
2022/05/30 00:46:16;;;;;;;8.80;3.30;;;9.70;99.90;;;;;;5091636;28;20020;-56
2022/05/30 00:48:47;;;;;;;8.02;3.15;;;9.60;99.90;;;;;;5082522;28;20034;-57
2022/05/30 00:51:17;;;;;;;9.20;3.13;;;9.60;99.90;;;;;;5088430;28;20020;-55
2022/05/30 00:53:46;;;;;;;6.93;2.88;;;9.70;99.90;;;;;;5085875;28;20508;-57
2022/05/30 00:56:13;;;;;;;6.00;2.33;;;9.70;99.90;;;;;;5087942;28;20146;-56
2022/05/30 00:58:45;;;;;;;3.67;2.35;;;9.80;99.90;;;;;;5070396;28;20041;-56
2022/05/30 01:01:10;;;;;;;5.93;2.83;;;9.80;99.90;;;;;;5088584;28;20078;-56
2022/05/30 01:06:33;;;;;;;7.70;2.88;;;9.80;99.90;;;;;;5090296;28;20111;-55
2022/05/30 01:09:09;;;;;;;11.60;3.83;;;9.80;99.90;;;;;;5072788;28;20028;-55
2022/05/30 01:11:58;;;;;;;5.93;2.22;;;9.80;99.90;;;;;;5084964;28;20028;-56
2022/05/30 01:14:30;;;;;;;10.05;2.97;;;9.80;99.90;;;;;;5085701;28;20366;-55
2022/05/30 01:16:56;;;;;;;6.88;2.78;;;9.80;99.90;;;;;;5087345;28;20028;-54
2022/05/30 01:19:37;;;;;;;4.53;2.20;;;9.80;99.90;;;;;;5086760;28;20405;-54
2022/05/30 01:22:22;;;;;;;9.48;2.40;;;9.80;99.90;;;;;;5087070;28;20641;-52
2022/05/30 01:25:02;;;;;;;6.55;3.13;;;9.80;99.90;;;;;;5087087;28;20028;-54
2022/05/30 01:27:42;;;;;;;6.57;2.42;;;9.90;99.90;;;;;;5086127;28;20571;-56
2022/05/30 01:30:12;;;;;;;10.10;3.67;;;9.90;99.90;;;;;;5089822;28;20028;-54
2022/05/30 01:32:38;;;;;;;5.68;2.10;;;9.90;99.90;;;;;;5092301;28;20070;-55
2022/05/30 01:35:04;;;;;;;5.05;2.08;;;9.90;99.90;;;;;;5092331;28;20078;-55
2022/05/30 01:37:30;;;;;;;5.38;2.72;;;9.90;99.90;;;;;;5091591;28;20043;-56
2022/05/30 01:39:55;;;;;;;4.75;2.28;;;9.90;99.90;;;;;;5091989;28;20358;-55
2022/05/30 01:42:21;;;;;;;5.45;1.85;;;10.00;99.90;;;;;;5089264;28;20036;-55
2022/05/30 01:44:46;;;;;;;7.10;2.30;;;10.00;99.90;;;;;;5090245;28;20093;-56
2022/05/30 01:47:12;;;;;;;2.22;1.90;;;10.00;99.90;;;;;;5092176;28;20028;-56
2022/05/30 01:49:38;;;;;;;11.30;2.90;;;10.00;99.90;;;;;;5090990;28;20024;-56
2022/05/30 01:52:04;;;;;;;4.05;2.28;;;10.00;99.90;;;;;;5091899;28;20027;-55
2022/05/30 01:54:30;;;;;;;7.78;2.05;;;9.90;99.90;;;;;;5086955;28;20050;-54
2022/05/30 01:56:55;;;;;;;6.43;3.83;;;9.80;99.90;;;;;;5091252;28;20027;-56
2022/05/30 01:59:21;;;;;;;3.60;2.63;;;9.80;99.90;;;;;;5090718;28;20421;-55
2022/05/30 02:01:47;;;;;;;4.80;2.40;;;9.70;99.90;;;;;;5090534;28;20039;-54
2022/05/30 02:04:14;;;;;;;7.78;2.92;;;9.70;99.90;;;;;;5073120;28;20436;-54
2022/05/30 02:06:39;;;;;;;3.17;2.33;;;9.60;99.90;;;;;;5092559;28;20548;-54
2022/05/30 02:09:05;;;;;;;5.70;2.25;;;9.70;99.90;;;;;;5089949;28;20016;-54
2022/05/30 02:11:31;;;;;;;7.35;2.95;;;9.70;99.90;;;;;;5090924;28;20036;-55
2022/05/30 02:13:57;;;;;;;4.43;2.47;;;9.70;99.90;;;;;;5090708;28;20044;-54
2022/05/30 02:19:09;;;;;;;7.18;2.20;;;9.80;99.90;;;;;;5091256;28;20066;-56
2022/05/30 02:21:35;;;;;;;10.88;3.28;;;9.80;99.90;;;;;;5091523;28;20115;-57
2022/05/30 02:24:02;;;;;;;6.20;2.25;;;9.80;99.90;;;;;;5092158;28;20108;-55
2022/05/30 02:26:28;;;;;;;8.05;3.00;;;9.80;99.90;;;;;;5091679;28;20192;-52
2022/05/30 02:28:53;;;;;;;4.15;2.28;;;9.70;99.90;;;;;;5090890;28;20397;-56
2022/05/30 02:31:19;;;;;;;6.68;2.97;;;9.70;99.90;;;;;;5092398;28;20054;-55
2022/05/30 02:36:41;;;;;;;5.13;2.97;;;9.70;99.90;;;;;;5093142;28;20157;-53
2022/05/30 02:39:15;;;;;;;5.88;3.50;;;9.50;99.90;;;;;;5087293;28;20035;-53
2022/05/30 02:41:41;;;;;;;10.90;2.85;;;9.40;99.90;;;;;;5090933;28;20036;-54
2022/05/30 02:44:08;;;;;;;7.88;2.97;;;9.30;99.90;;;;;;5090171;28;20498;-54
2022/05/30 02:46:34;;;;;;;10.30;2.85;;;9.20;99.90;;;;;;5091769;28;20089;-55
2022/05/30 02:49:00;;;;;;;4.25;2.78;;;9.30;99.90;;;;;;5090213;28;20050;-55
2022/05/30 02:51:26;;;;;;;6.50;3.08;;;9.30;99.90;;;;;;5090373;28;20071;-54
2022/05/30 02:53:51;;;;;;;14.68;3.15;;;9.20;99.90;;;;;;5094348;28;20055;-55
2022/05/30 02:56:17;;;;;;;7.38;2.55;;;9.20;99.90;;;;;;5092507;28;20051;-54
2022/05/30 02:58:43;;;;;;;8.35;2.80;;;9.30;99.90;;;;;;5091033;28;20402;-56
2022/05/30 03:01:10;;;;;;;7.43;3.22;;;9.30;99.90;;;;;;5091245;28;20032;-55
2022/05/30 03:03:36;;;;;;;13.60;4.70;;;9.30;99.90;;;;;;5092066;28;20037;-55
2022/05/30 03:06:02;;;;;;;4.72;2.65;;;9.30;99.90;;;;;;5089380;28;20053;-54
2022/05/30 03:08:28;;;;;;;9.52;2.60;;;9.30;99.90;;;;;;5091589;28;20059;-53
2022/05/30 03:10:54;;;;;;;5.00;2.28;;;9.40;99.90;;;;;;5091141;28;20035;-55
2022/05/30 03:13:19;;;;;;;8.32;2.60;;;9.30;99.90;;;;;;5090494;28;20044;-54
2022/05/30 03:15:45;;;;;;;6.45;2.40;;;9.30;99.90;;;;;;5093181;28;20035;-53
2022/05/30 03:18:10;;;;;;;5.47;2.40;;;9.20;99.90;;;;;;5089805;28;20020;-54
2022/05/30 03:20:36;;;;;;;5.25;3.10;;;9.10;99.90;;;;;;5091739;28;20509;-55
2022/05/30 03:23:02;;;;;;;7.55;3.50;;;9.20;99.90;;;;;;5090268;28;20032;-53
2022/05/30 03:25:28;;;;;;;5.25;2.72;;;9.10;99.90;;;;;;5090246;28;20035;-54
2022/05/30 03:27:55;;;;;;;5.72;2.95;;;9.20;99.90;;;;;;5090956;28;20035;-54
2022/05/30 03:30:21;;;;;;;6.20;2.63;;;9.20;99.90;;;;;;5088662;28;20039;-54
2022/05/30 03:32:47;;;;;;;4.65;3.00;;;9.20;99.90;;;;;;5090493;28;20050;-53
2022/05/30 03:35:13;;;;;;;7.60;2.90;;;9.20;99.90;;;;;;5090092;28;20032;-54
2022/05/30 03:37:40;;;;;;;8.00;3.05;;;9.30;99.90;;;;;;5092031;28;20447;-55
2022/05/30 03:40:08;;;;;;;7.05;3.40;;;9.20;99.90;;;;;;5085807;28;20063;-56
2022/05/30 03:42:34;;;;;;;5.07;2.80;;;9.20;99.90;;;;;;5090517;28;20035;-52
2022/05/30 03:45:01;;;;;;;15.10;3.42;;;9.20;99.90;;;;;;5090745;28;20028;-53
2022/05/30 03:47:27;;;;;;;6.25;3.15;;;9.20;99.90;;;;;;5090163;28;20316;-54
2022/05/30 03:50:00;;;;;;;13.50;4.35;;;9.20;99.90;;;;;;5086315;28;20028;-55
2022/05/30 03:52:26;;;;;;;12.43;3.55;;;9.30;99.90;;;;;;5087401;28;20026;-54
2022/05/30 03:54:52;;;;;;;9.65;3.22;;;9.30;99.90;;;;;;5087423;28;20097;-53
2022/05/30 03:57:18;;;;;;;28.55;5.13;;;9.40;99.90;;;;;;5091100;28;20020;-54
2022/05/30 03:59:44;;;;;;;6.43;3.25;;;9.40;99.90;;;;;;5088553;28;20067;-53
2022/05/30 04:02:09;;;;;;;10.00;3.35;;;9.40;99.90;;;;;;5091058;28;20062;-56
2022/05/30 04:04:35;;;;;;;12.07;3.20;;;9.40;99.90;;;;;;5089773;28;20110;-53
2022/05/30 04:07:00;;;;;;;5.13;2.80;;;9.40;99.90;;;;;;5090407;28;20028;-53
2022/05/30 04:09:26;;;;;;;8.02;3.40;;;9.40;99.90;;;;;;5089109;28;20501;-55
2022/05/30 04:11:51;;;;;;;7.55;3.08;;;9.50;99.90;;;;;;5089576;28;20032;-55
2022/05/30 04:14:17;;;;;;;14.13;3.22;;;9.50;99.90;;;;;;5090026;28;20387;-54
2022/05/30 04:16:42;;;;;;;9.05;2.97;;;9.50;99.90;;;;;;5088546;28;20036;-56
2022/05/30 04:19:08;;;;;;;9.57;3.15;;;9.50;99.90;;;;;;5086123;28;20031;-55
2022/05/30 04:21:35;;;;;;;5.45;3.08;;;9.60;99.90;;;;;;5090891;28;20028;-56
2022/05/30 04:24:00;;;;;;;6.45;3.00;;;9.60;99.90;;;;;;5089189;28;20032;-55
2022/05/30 04:26:26;;;;;;;12.07;3.88;;;9.60;99.90;;;;;;5089504;28;20146;-56
2022/05/30 04:28:51;;;;;;;6.13;3.00;;;9.70;99.90;;;;;;5088330;28;20478;-54
2022/05/30 04:31:17;;;;;;;4.47;2.90;;;9.70;99.90;;;;;;5090192;28;20761;-56
2022/05/30 04:33:43;;;;;;;12.18;2.72;;;9.70;99.90;;;;;;5085489;28;20799;-57
2022/05/30 04:36:13;;;;;;;11.48;3.95;;;9.70;99.90;;;;;;5089833;28;20474;-55
2022/05/30 04:38:39;;;;;;;8.93;3.25;;;9.80;99.90;;;;;;5089455;28;20425;-57
2022/05/30 04:41:05;;;;;;;12.70;3.00;;;9.80;99.90;;;;;;5095664;28;20024;-57
2022/05/30 04:43:31;;;;;;;8.20;2.53;;;9.80;99.90;;;;;;5089106;28;20083;-56
2022/05/30 04:46:10;;;;;;;6.30;3.03;;;9.90;99.90;;;;;;5089079;28;20035;-54
2022/05/30 04:48:36;;;;;;;5.90;2.60;;;9.90;99.90;;;;;;5086086;28;20024;-54
2022/05/30 04:51:02;;;;;;;14.10;2.63;;;10.00;99.90;;;;;;5091205;28;20066;-54
2022/05/30 04:53:27;;;;;;;11.00;2.88;;;10.00;99.90;;;;;;5089527;28;20024;-54
2022/05/30 04:55:53;;;;;;;10.57;2.65;;;10.10;99.90;;;;;;5089393;28;20036;-56
2022/05/30 04:58:18;;;;;;;17.02;3.35;;;10.10;99.90;;;;;;5086012;28;20024;-56
2022/05/30 05:00:45;;;;;;;8.30;3.05;;;10.20;99.90;;;;;;5089606;28;20068;-55
2022/05/30 05:03:10;;;;;;;10.77;2.83;;;10.20;99.90;;;;;;5090320;28;20108;-54
2022/05/30 05:05:36;;;;;;;9.55;3.08;;;10.30;99.90;;;;;;5095049;28;20099;-56
2022/05/30 05:08:14;;;;;;;7.15;2.47;;;10.30;99.90;;;;;;5092930;28;20027;-53
2022/05/30 05:10:44;;;;;;;9.27;3.13;;;10.40;99.90;;;;;;5096780;28;20052;-55
2022/05/30 05:13:09;;;;;;;12.10;2.78;;;10.40;99.90;;;;;;5087227;22;20510;-55
2022/05/30 05:15:35;;;;;;;9.50;2.47;;;10.50;99.90;;;;;;5047096;28;20025;-57
2022/05/30 05:18:00;;;;;;;8.00;2.83;;;10.50;99.90;;;;;;5047531;28;20025;-56
2022/05/30 05:20:26;;;;;;;10.50;3.58;;;10.60;99.90;;;;;;5051138;28;20021;-57
2022/05/30 05:22:52;;;;;;;11.88;2.70;;;10.60;99.90;;;;;;5063994;28;20025;-57
2022/05/30 05:25:18;;;;;;;13.40;2.90;;;10.60;99.90;;;;;;5070349;28;20024;-56
2022/05/30 05:27:44;;;;;;;5.95;2.03;;;10.70;99.90;;;;;;5065312;28;20487;-55
2022/05/30 05:30:10;;;;;;;5.40;2.08;;;10.70;99.90;;;;;;5066627;28;20386;-57
2022/05/30 05:32:36;;;;;;;5.90;2.28;;;10.80;99.90;;;;;;5067015;28;20055;-56
2022/05/30 05:35:02;;;;;;;8.38;1.98;;;10.70;99.90;;;;;;5068801;28;20068;-57
2022/05/30 05:37:28;;;;;;;12.93;2.65;;;10.80;99.90;;;;;;5071794;28;20037;-58
2022/05/30 05:39:54;;;;;;;10.07;2.28;;;10.80;99.90;;;;;;5070975;28;20020;-60
2022/05/30 05:42:19;;;;;;;9.27;2.55;;;10.90;99.90;;;;;;5071449;28;20108;-57
2022/05/30 05:44:45;;;;;;;9.35;2.50;;;10.90;99.90;;;;;;5071249;28;20543;-54
2022/05/30 05:47:10;;;;;;;8.63;2.05;;;10.90;99.90;;;;;;5051918;28;20435;-56
2022/05/30 05:49:36;;;;;;;8.55;1.90;;;10.90;99.90;;;;;;5071750;28;20037;-59
2022/05/30 05:52:02;;;;;;;7.97;2.10;;;11.00;99.90;;;;;;5071350;28;20032;-57
2022/05/30 05:54:28;;;;;;;11.63;2.92;;;11.10;99.90;;;;;;5071263;28;20086;-53
2022/05/30 05:56:53;;;;;;;7.07;2.70;;;11.10;99.90;;;;;;5071875;28;20506;-56
2022/05/30 05:59:19;;;;;;;8.77;3.20;;;11.20;99.90;;;;;;5071450;28;20044;-59
2022/05/30 06:01:44;;;;;;;14.13;4.20;;;11.20;99.90;;;;;;5070640;28;20089;-56
2022/05/30 06:04:11;;;;;;;8.18;3.08;;;11.20;99.90;;;;;;5071581;28;20028;-56
2022/05/30 06:06:36;;;;;;;13.05;3.55;;;11.20;99.90;;;;;;5071748;28;20025;-56
2022/05/30 06:09:04;;;;;;;5.95;2.47;;;11.20;99.90;;;;;;5070947;28;20130;-58
2022/05/30 06:11:31;;;;;;;11.60;3.80;;;11.20;99.90;;;;;;5071656;28;20150;-57
2022/05/30 06:13:57;;;;;;;13.68;3.78;;;11.20;99.90;;;;;;5069603;28;20029;-55
2022/05/30 06:16:28;;;;;;;6.25;2.92;;;11.20;99.90;;;;;;5071518;28;20497;-59
2022/05/30 06:18:58;;;;;;;16.30;3.80;;;11.20;99.90;;;;;;5070911;28;20033;-57
2022/05/30 06:21:25;;;;;;;7.78;2.72;;;11.20;99.90;;;;;;5070545;28;20056;-56
2022/05/30 06:23:55;;;;;;;18.13;3.92;;;11.20;99.90;;;;;;5071191;28;20035;-58
2022/05/30 06:26:22;;;;;;;6.25;3.50;;;11.20;99.90;;;;;;5070665;28;20527;-58
2022/05/30 06:28:48;;;;;;;9.77;3.80;;;11.20;99.90;;;;;;5070874;28;20064;-57
2022/05/30 06:31:19;;;;;;;16.17;3.55;;;11.20;99.90;;;;;;5071113;28;20020;-58
2022/05/30 06:33:44;;;;;;;19.70;2.80;;;11.30;99.90;;;;;;5070604;28;20032;-53
2022/05/30 06:36:14;;;;;;;9.75;3.47;;;11.30;99.90;;;;;;5071025;28;20029;-56
2022/05/30 06:38:40;;;;;;;12.07;2.78;;;11.30;99.90;;;;;;5071584;28;20024;-55
2022/05/30 06:41:22;;;;;;;16.23;3.83;;;11.40;99.90;;;;;;5071451;28;20021;-55
2022/05/30 06:43:51;;;;;;;13.35;3.75;;;11.50;99.90;;;;;;5071400;28;20390;-56
2022/05/30 06:46:17;;;;;;;9.80;2.83;;;11.50;99.90;;;;;;5071315;28;20032;-57
2022/05/30 06:48:43;;;;;;;9.77;4.15;;;11.60;99.90;;;;;;5070747;28;20082;-58
2022/05/30 06:51:11;;;;;;;18.73;4.38;;;11.60;99.90;;;;;;5068303;28;20017;-57
2022/05/30 06:53:38;;;;;;;15.40;3.60;;;11.60;99.90;;;;;;5070088;28;20082;-60
2022/05/30 06:56:14;;;;;;;21.45;3.83;;;11.60;99.90;;;;;;5070616;28;20040;-60
2022/05/30 06:58:42;;;;;;;15.23;4.43;;;11.70;99.90;;;;;;5070387;28;20030;-56
2022/05/30 07:01:09;;;;;;;10.57;3.78;;;11.80;99.90;;;;;;5070882;28;20051;-57
2022/05/30 07:03:36;;;;;;;9.40;3.47;;;11.80;99.90;;;;;;5072069;28;20056;-56
2022/05/30 07:06:06;;;;;;;14.88;4.10;;;11.90;99.90;;;;;;5072168;28;20067;-56
2022/05/30 07:08:31;;;;;;;17.35;3.58;;;11.80;99.90;;;;;;5072145;28;20698;-56
2022/05/30 07:10:57;;;;;;;13.50;4.25;;;11.90;99.90;;;;;;5072647;28;20033;-57
2022/05/30 07:13:23;;;;;;;14.88;4.55;;;11.90;99.90;;;;;;5071287;28;20027;-55
2022/05/30 07:15:50;;;;;;;9.32;3.53;;;11.90;99.90;;;;;;5071842;28;20490;-58
2022/05/30 07:18:18;;;;;;;13.55;4.63;;;11.90;99.90;;;;;;5071338;28;20089;-55
2022/05/30 07:20:43;;;;;;;14.90;4.88;;;12.00;99.90;;;;;;5071590;28;20055;-56
2022/05/30 07:23:10;;;;;;;15.25;4.80;;;12.10;99.90;;;;;;5071837;28;20063;-58
2022/05/30 07:25:38;;;;;;;14.35;4.10;;;12.10;99.90;;;;;;5072771;28;20165;-59
2022/05/30 07:28:05;;;;;;;20.23;5.05;;;12.00;99.90;;;;;;5072531;28;20048;-57
2022/05/30 07:30:30;;;;;;;16.17;4.97;;;12.00;99.90;;;;;;5070593;28;20021;-50
2022/05/30 07:32:56;;;;;;;15.85;5.55;;;12.00;99.90;;;;;;5070890;28;20035;-56
2022/05/30 07:35:23;;;;;;;13.38;4.50;;;11.90;99.90;;;;;;5071388;28;20081;-56
2022/05/30 07:37:49;;;;;;;17.92;6.35;;;11.90;99.90;;;;;;5071429;28;20043;-57
2022/05/30 07:40:15;;;;;;;17.30;5.30;;;12.00;99.90;;;;;;5071791;28;20035;-58
2022/05/30 07:42:41;;;;;;;12.55;4.95;;;12.10;99.90;;;;;;5071478;28;20033;-54
2022/05/30 07:45:09;;;;;;;19.20;5.03;;;12.10;99.90;;;;;;5071231;28;20100;-55
2022/05/30 07:47:34;;;;;;;18.10;4.63;;;12.20;99.90;;;;;;5071413;28;20203;-58
2022/05/30 07:50:02;;;;;;;12.07;3.90;;;12.20;99.90;;;;;;5071540;28;20662;-56
2022/05/30 07:52:30;;;;;;;10.13;2.90;;;12.20;99.90;;;;;;5069750;28;20070;-59
2022/05/30 07:54:56;;;;;;;12.18;3.92;;;12.30;99.90;;;;;;5072596;28;20032;-56
2022/05/30 07:57:50;;;;;;;11.73;3.08;;;12.30;99.90;;;;;;5071155;28;20035;-58
2022/05/30 08:00:09;;;;;;;13.25;3.80;;;12.30;99.90;;;;;;5064715;28;20032;-57
2022/05/30 08:02:34;;;;;;;10.20;3.35;;;12.30;99.90;;;;;;5070258;28;20520;-56
2022/05/30 08:05:00;;;;;;;11.63;3.92;;;12.40;99.90;;;;;;5070127;28;20028;-53
2022/05/30 08:07:25;;;;;;;13.43;3.90;;;12.30;99.90;;;;;;5077520;28;20035;-58
2022/05/30 08:09:51;;;;;;;14.45;4.07;;;12.20;99.90;;;;;;5071741;28;20029;-53
2022/05/30 08:12:17;;;;;;;12.73;3.63;;;12.30;99.90;;;;;;5072187;28;20071;-54
2022/05/30 08:14:42;;;;;;;10.98;3.55;;;12.60;99.90;;;;;;5076718;28;20040;-57
2022/05/30 08:17:08;;;;;;;9.05;2.88;;;12.40;99.90;;;;;;5071131;28;20028;-57
2022/05/30 08:19:33;;;;;;;14.23;3.65;;;12.50;99.90;;;;;;5071468;28;20060;-56
2022/05/30 08:22:07;;;;;;;11.88;3.70;;;12.70;99.90;;;;;;5070851;28;20070;-56
2022/05/30 08:24:38;;;;;;;10.45;2.78;;;12.70;99.90;;;;;;5071414;28;20021;-56
2022/05/30 08:27:04;;;;;;;22.90;3.60;;;12.80;99.90;;;;;;5071255;28;20032;-58
2022/05/30 08:29:30;;;;;;;12.05;2.88;;;12.70;99.90;;;;;;5071338;28;20055;-59
2022/05/30 08:31:56;;;;;;;15.35;3.35;;;12.70;99.90;;;;;;5070115;28;20017;-57
2022/05/30 08:34:22;;;;;;;9.07;2.35;;;12.90;99.90;;;;;;5070346;28;20078;-60
2022/05/30 08:36:47;;;;;;;16.10;3.40;;;13.00;99.90;;;;;;5070563;28;20024;-58
2022/05/30 08:42:00;;;;;;;11.88;2.90;;;13.10;99.90;;;;;;5070954;28;20162;-56
2022/05/30 08:44:29;;;;;;;13.38;3.78;;;13.20;99.90;;;;;;5071102;28;20489;-60
2022/05/30 08:47:21;;;;;;;10.85;3.28;;;13.20;99.90;;;;;;5070655;28;20258;-59
2022/05/30 08:49:50;;;;;;;15.18;2.90;;;13.10;99.90;;;;;;5060339;28;20063;-60
2022/05/30 08:52:38;;;;;;;8.13;2.92;;;13.30;99.90;;;;;;5067719;28;20094;-59
2022/05/30 08:55:40;;;;;;;7.75;3.10;;;13.50;99.90;;;;;;5067747;28;20108;-57
2022/05/30 08:58:32;;;;;;;6.38;2.83;;;13.70;99.90;;;;;;5067922;28;20052;-57
2022/05/30 09:01:08;;;;;;;8.82;3.15;;;13.60;99.90;;;;;;5067722;28;20520;-60
2022/05/30 09:03:41;;;;;;;9.65;2.85;;;13.80;99.90;;;;;;5062735;28;20020;-53
2022/05/30 09:06:22;;;;;;;18.33;4.28;;;13.80;99.90;;;;;;5066772;28;20029;-56
2022/05/30 09:09:00;;;;;;;10.23;3.70;;;13.60;99.90;;;;;;5067127;28;20033;-62
2022/05/30 09:11:34;;;;;;;16.88;3.83;;;13.20;99.90;;;;;;5068814;28;20513;-53
2022/05/30 09:14:05;;;;;;;8.25;3.05;;;13.10;99.90;;;;;;5071162;28;20414;-57
2022/05/30 09:16:31;;;;;;;7.30;2.45;;;13.40;99.90;;;;;;5071208;28;20090;-55
2022/05/30 09:19:00;;;;;;;10.32;2.60;;;13.60;99.90;;;;;;5070788;28;20037;-56
2022/05/30 09:21:29;;;;;;;10.73;2.38;;;13.50;99.90;;;;;;5070410;28;20090;-59
2022/05/30 09:23:54;;;;;;;14.48;2.30;;;13.50;99.90;;;;;;5070829;28;20052;-58
2022/05/30 09:26:24;;;;;;;6.05;3.17;;;13.50;99.90;;;;;;5070319;28;20079;-58
2022/05/30 09:28:52;;;;;;;8.55;2.80;;;13.50;99.90;;;;;;5070612;28;20401;-59
2022/05/30 09:31:33;;;;;;;11.52;3.60;;;13.40;99.90;;;;;;5070241;28;20154;-56
2022/05/30 09:34:00;;;;;;;9.30;2.45;;;13.70;99.90;;;;;;5074778;28;20020;-58
2022/05/30 09:36:32;;;;;;;17.55;4.00;;;13.90;99.90;;;;;;5072620;28;20020;-59
2022/05/30 09:38:57;;;;;;;7.65;2.58;;;14.00;99.90;;;;;;5069454;28;20055;-58
2022/05/30 09:41:46;;;;;;;11.52;2.92;;;14.10;99.90;;;;;;5069332;28;20490;-61
2022/05/30 09:44:18;;;;;;;10.50;2.35;;;14.20;99.90;;;;;;5074531;28;20028;-58
2022/05/30 09:47:03;;;;;;;8.52;3.13;;;14.20;99.90;;;;;;5069071;28;20028;-58
2022/05/30 09:49:42;;;;;;;9.50;2.22;;;14.30;99.90;;;;;;5073871;28;20044;-60
2022/05/30 09:52:33;;;;;;;11.82;3.92;;;14.10;99.90;;;;;;5073812;28;20482;-56
2022/05/30 09:54:58;;;;;;;20.45;3.50;;;14.10;99.90;;;;;;5073229;28;20526;-57
2022/05/30 09:57:34;;;;;;;10.73;3.38;;;14.30;99.90;;;;;;5073153;28;20095;-57
2022/05/30 10:00:10;;;;;;;6.15;2.42;;;14.60;99.90;;;;;;5073551;28;20470;-54
2022/05/30 10:02:39;;;;;;;11.10;2.33;;;14.80;99.90;;;;;;5073611;28;20124;-55
2022/05/30 10:05:04;;;;;;;14.00;3.60;;;14.90;99.90;;;;;;5074081;28;20449;-55
2022/05/30 10:07:35;;;;;;;9.55;2.25;;;14.80;99.90;;;;;;5073706;28;20052;-55
2022/05/30 10:10:02;;;;;;;8.85;2.08;;;14.40;99.90;;;;;;5073697;28;20107;-59
2022/05/30 10:12:33;;;;;;;7.93;2.60;;;14.40;99.90;;;;;;5073260;28;20041;-57
2022/05/30 10:14:58;;;;;;;5.07;2.00;;;14.50;99.90;;;;;;5073752;28;20078;-58
2022/05/30 10:17:33;;;;;;;13.02;2.83;;;14.40;99.90;;;;;;5073392;28;20403;-59
2022/05/30 10:20:03;;;;;;;10.20;3.22;;;14.50;99.90;;;;;;5073893;28;20032;-60
2022/05/30 10:28:50;;;;;;;9.18;2.70;;;14.50;99.90;;;;;;5073635;28;20023;-60
2022/05/30 10:31:33;;;;;;;10.45;3.00;;;14.40;99.90;;;;;;5073074;28;20032;-62
2022/05/30 10:34:07;;;;;;;60.08;6.07;;;14.30;99.90;;;;;;5069020;28;20071;-57
2022/05/30 10:36:38;;;;;;;;;;;14.20;99.90;;;;;;5073883;28;20612;-60
2022/05/30 10:39:35;;;;;;;9.38;2.45;;;14.20;99.90;;;;;;5073098;28;20369;-58
2022/05/30 10:42:08;;;;;;;4.95;2.65;;;14.20;99.90;;;;;;5072967;28;20052;-61
2022/05/30 10:44:44;;;;;;;16.63;3.35;;;14.60;99.90;;;;;;5067543;28;20024;-57
2022/05/30 10:47:21;;;;;;;15.50;3.83;;;14.80;99.90;;;;;;5072936;28;20086;-59
2022/05/30 10:49:51;;;;;;;9.23;2.95;;;15.00;99.90;;;;;;5073150;28;20042;-58
2022/05/30 10:52:31;;;;;;;10.80;3.45;;;15.50;99.90;;;;;;5073058;28;20394;-58
2022/05/30 10:55:12;;;;;;;8.35;2.35;;;16.30;99.90;;;;;;5072795;28;20107;-58
2022/05/30 10:57:42;;;;;;;9.07;2.05;;;16.80;99.90;;;;;;5072817;28;20028;-60
2022/05/30 11:00:22;;;;;;;2.42;1.67;;;16.20;99.90;;;;;;5072187;28;20498;-58
2022/05/30 11:03:26;;;;;;;9.73;2.72;;;15.80;99.90;;;;;;5072423;28;20071;-56
2022/05/30 11:06:18;;;;;;;13.40;2.25;;;15.40;99.90;;;;;;5072523;28;20035;-56
2022/05/30 11:09:04;;;;;;;5.65;2.47;;;15.30;99.90;;;;;;5068303;28;20025;-57
2022/05/30 11:11:43;;;;;;;6.30;3.67;;;15.00;99.90;;;;;;5072253;28;20012;-54
2022/05/30 11:14:47;;;;;;;6.78;2.70;;;15.50;99.90;;;;;;5090868;22;20053;-54
2022/05/30 11:17:30;;;;;;;5.47;2.33;;;16.00;99.90;;;;;;5070205;28;20032;-57
2022/05/30 11:20:17;;;;;;;10.77;3.35;;;16.30;99.90;;;;;;5071506;28;20514;-54
2022/05/30 11:22:47;;;;;;;5.55;3.00;;;16.50;99.90;;;;;;5069784;28;20032;-54
2022/05/30 11:25:16;;;;;;;9.20;2.42;;;16.40;99.90;;;;;;5052053;28;20418;-54
2022/05/30 11:27:55;;;;;;;4.68;2.28;;;16.80;99.90;;;;;;5052408;28;20037;-54
2022/05/30 11:30:58;;;;;;;5.65;2.53;;;17.40;99.90;;;;;;5051260;28;20517;-54
2022/05/30 11:33:30;;;;;;;3.08;2.10;;;17.00;99.90;;;;;;5054689;28;20148;-55
2022/05/30 11:36:03;;;;;;;6.85;2.45;;;16.30;99.90;;;;;;5051102;28;20027;-56
2022/05/30 11:38:50;;;;;;;9.35;2.20;;;16.10;99.90;;;;;;5052624;28;20090;-57
2022/05/30 11:41:42;;;;;;;7.63;2.90;;;15.70;99.90;;;;;;5052286;28;20031;-56
2022/05/30 11:44:19;;;;;;;446.45;50.50;;;15.60;99.90;;;;;;5046965;28;20033;-54
2022/05/30 11:47:12;;;;;;;96.03;9.32;;;15.70;99.90;;;;;;5053465;28;20450;-54
2022/05/30 11:49:54;;;;;;;7.05;2.92;;;15.70;99.90;;;;;;5052667;28;20033;-56
2022/05/30 11:52:46;;;;;;;6.55;2.58;;;15.20;99.90;;;;;;5047280;28;20094;-54
2022/05/30 11:55:12;;;;;;;6.70;2.45;;;15.20;99.90;;;;;;5052802;28;20092;-54
2022/05/30 11:57:49;;;;;;;7.93;2.60;;;15.00;99.90;;;;;;5057864;28;20021;-54
2022/05/30 12:00:45;;;;;;;8.18;3.10;;;15.10;99.90;;;;;;5051892;28;20091;-54
2022/05/30 12:03:24;;;;;;;8.80;2.58;;;15.10;99.90;;;;;;5058098;28;20025;-56
2022/05/30 12:06:12;;;;;;;4.70;2.65;;;15.50;99.90;;;;;;5043520;28;20033;-54
2022/05/30 12:08:40;;;;;;;11.32;2.83;;;16.00;99.90;;;;;;5048617;28;20025;-55
2022/05/30 12:11:33;;;;;;;6.43;2.20;;;16.60;99.90;;;;;;5044918;28;20025;-57
2022/05/30 12:14:25;;;;;;;7.00;3.00;;;17.40;99.90;;;;;;5042628;28;20391;-56
2022/05/30 12:17:03;;;;;;;11.90;2.70;;;17.20;99.90;;;;;;5047610;28;20246;-57
2022/05/30 12:25:52;;;;;;;5.45;2.42;;;16.60;99.90;;;;;;4970338;28;20346;-55
2022/05/30 12:28:34;;;;;;;12.30;3.10;;;16.60;99.90;;;;;;5030378;28;20059;-57
2022/05/30 12:31:03;;;;;;;6.32;2.50;;;16.30;99.90;;;;;;5051424;28;20024;-58
2022/05/30 12:33:29;;;;;;;5.03;2.65;;;16.10;99.90;;;;;;5051677;28;20055;-54
2022/05/30 12:36:10;;;;;;;6.57;2.45;;;16.20;99.90;;;;;;5051696;28;20100;-54
2022/05/30 12:38:56;;;;;;;7.00;3.00;;;16.00;99.90;;;;;;5052697;28;20108;-56
2022/05/30 12:41:58;;;;;;;6.30;2.97;;;16.10;99.90;;;;;;5051893;28;20554;-57
2022/05/30 12:44:43;;;;;;;9.90;3.20;;;15.80;99.90;;;;;;5051621;28;20037;-56
2022/05/30 12:47:30;;;;;;;3.92;3.10;;;15.80;99.90;;;;;;5051984;28;20677;-55
2022/05/30 12:50:31;;;;;;;6.80;3.55;;;15.80;99.90;;;;;;5057098;28;20063;-53
2022/05/30 12:53:00;;;;;;;8.90;4.55;;;15.50;99.90;;;;;;5010985;28;20068;-55
2022/05/30 12:55:34;;;;;;;6.20;3.42;;;15.40;99.90;;;;;;5051193;28;20032;-53
2022/05/30 12:58:00;;;;;;;5.85;3.05;;;15.60;99.90;;;;;;5052193;28;20104;-54
2022/05/30 13:00:42;;;;;;;6.13;2.85;;;15.80;99.90;;;;;;5052448;28;20080;-55
2022/05/30 13:03:20;;;;;;;8.20;2.47;;;15.70;99.90;;;;;;5052144;28;20140;-54
2022/05/30 13:05:58;;;;;;;12.80;3.50;;;15.80;99.90;;;;;;5055904;28;20108;-54
2022/05/30 13:08:55;;;;;;;6.28;2.70;;;16.00;99.90;;;;;;5051939;28;20029;-56
2022/05/30 13:11:34;;;;;;;8.13;2.42;;;15.90;99.90;;;;;;5046806;28;20071;-53
2022/05/30 13:14:11;;;;;;;6.82;2.85;;;16.20;99.90;;;;;;5050981;28;20529;-54
2022/05/30 13:16:40;;;;;;;8.77;3.15;;;16.10;99.90;;;;;;5052336;28;20074;-54
2022/05/30 13:19:12;;;;;;;5.13;2.88;;;16.20;99.90;;;;;;5057493;28;20039;-54
2022/05/30 13:21:42;;;;;;;6.65;2.67;;;16.30;99.90;;;;;;5052282;28;20039;-56
2022/05/30 13:24:28;;;;;;;5.18;3.05;;;16.30;99.90;;;;;;5043974;28;20052;-54
2022/05/30 13:26:54;;;;;;;9.77;3.17;;;16.60;99.90;;;;;;5055899;28;20087;-56